createdAt,value
2023-04-08T00:04:43.799Z,5.53
2023-04-08T00:12:18.108Z,5.54
2023-04-08T00:19:53.392Z,5.53
2023-04-08T00:27:27.481Z,5.56
2023-04-08T00:35:02.955Z,5.54
2023-04-08T00:42:36.801Z,5.54
2023-04-08T00:50:12.688Z,5.52
2023-04-08T00:57:47.000Z,5.52
2023-04-08T01:05:31.962Z,5.53
2023-04-08T01:13:10.318Z,5.52
2023-04-08T01:20:46.030Z,5.50
2023-04-08T01:28:23.779Z,5.55
2023-04-08T01:36:00.206Z,5.56
2023-04-08T01:43:37.063Z,5.56
2023-04-08T01:51:12.951Z,5.54
2023-04-08T01:58:53.429Z,5.57
2023-04-08T02:06:29.423Z,5.56
2023-04-08T02:14:04.816Z,5.59
2023-04-08T02:21:47.581Z,5.57
2023-04-08T02:29:23.295Z,5.59
2023-04-08T02:36:57.344Z,5.62
2023-04-08T02:44:32.632Z,5.62
2023-04-08T02:52:06.661Z,5.61
2023-04-08T02:59:42.123Z,5.64
2023-04-08T03:07:16.387Z,5.65
2023-04-08T03:14:51.994Z,5.68
2023-04-08T03:30:18.598Z,5.69
2023-04-08T03:37:52.621Z,5.73
2023-04-08T03:45:28.019Z,5.71
2023-04-08T03:53:02.054Z,5.76
2023-04-08T04:24:14.738Z,5.83
2023-04-08T04:31:50.106Z,5.85
2023-04-08T04:39:24.104Z,5.87
2023-04-08T04:46:59.343Z,5.90
2023-04-08T04:54:33.229Z,5.91
2023-04-08T05:02:08.619Z,5.93
2023-04-08T05:09:42.677Z,5.96
2023-04-08T05:17:17.877Z,5.97
2023-04-08T05:24:51.768Z,6.02
2023-04-08T05:32:27.897Z,6.02
2023-04-08T05:40:01.779Z,6.05
2023-04-08T05:47:37.375Z,6.07
2023-04-08T05:55:11.382Z,6.13
2023-04-08T06:02:47.072Z,6.14
2023-04-08T06:10:21.273Z,6.16
2023-04-08T06:17:56.708Z,6.21
2023-04-08T06:25:30.574Z,6.27
2023-04-08T06:33:06.165Z,6.31
2023-04-08T06:40:40.160Z,6.39
2023-04-08T06:48:15.740Z,6.48
2023-04-08T06:55:49.825Z,6.51
2023-04-08T07:03:26.762Z,6.58
2023-04-08T07:11:01.016Z,6.68
2023-04-08T07:18:36.683Z,6.72
2023-04-08T07:26:10.556Z,6.82
2023-04-08T07:33:47.030Z,6.94
2023-04-08T07:41:21.502Z,7.06
2023-04-08T07:48:56.704Z,7.12
2023-04-08T07:56:30.675Z,7.23
2023-04-08T08:04:06.327Z,7.31
2023-04-08T08:19:33.646Z,7.51
2023-04-08T08:27:08.243Z,7.54
2023-04-08T08:34:43.770Z,7.66
2023-04-08T08:42:22.447Z,7.76
2023-04-08T08:49:57.858Z,7.86
2023-04-08T09:05:25.142Z,8.00
2023-04-08T09:13:00.542Z,8.13
2023-04-08T09:20:35.725Z,8.31
2023-04-08T09:28:20.970Z,8.54
2023-04-08T09:35:56.307Z,8.62
2023-04-08T09:43:30.900Z,8.66
2023-04-08T09:51:07.392Z,8.68
2023-04-08T09:58:47.427Z,8.73
2023-04-08T10:06:24.226Z,8.72
2023-04-08T10:13:59.303Z,8.76
2023-04-08T10:21:39.726Z,8.82
2023-04-08T10:29:44.042Z,8.91
2023-04-08T10:37:19.575Z,9.26
2023-04-08T10:44:53.542Z,9.41
2023-04-08T10:52:28.921Z,9.52
2023-04-08T11:00:06.076Z,9.51
2023-04-08T11:07:42.993Z,9.60
2023-04-08T11:15:17.204Z,9.73
2023-04-08T11:22:53.526Z,9.82
2023-04-08T11:30:28.248Z,9.87
2023-04-08T11:38:06.549Z,9.90
2023-04-08T11:45:41.724Z,9.94
2023-04-08T11:53:20.847Z,10.30
2023-04-08T12:00:54.785Z,10.32
2023-04-08T12:08:30.157Z,10.30
2023-04-08T12:16:04.172Z,10.35
2023-04-08T12:23:39.605Z,10.43
2023-04-08T12:31:13.957Z,10.84
2023-04-08T12:38:49.935Z,10.89
2023-04-08T12:46:24.463Z,11.13
2023-04-08T12:54:00.519Z,11.40
2023-04-08T13:01:34.484Z,11.73
2023-04-08T13:09:09.718Z,11.79
2023-04-08T13:16:43.655Z,11.52
2023-04-08T13:24:19.115Z,11.44
2023-04-08T13:31:53.693Z,11.48
2023-04-08T13:39:29.240Z,11.55
2023-04-08T13:47:03.184Z,11.80
2023-04-08T13:54:38.600Z,12.19
2023-04-08T14:02:13.185Z,12.36
2023-04-08T14:09:48.905Z,12.54
2023-04-08T14:17:23.100Z,12.34
2023-04-08T14:24:58.489Z,12.25
2023-04-08T14:32:32.300Z,12.32
2023-04-08T14:40:10.702Z,12.22
2023-04-08T14:47:44.793Z,12.34
2023-04-08T14:55:22.755Z,12.91
2023-04-08T15:02:57.136Z,12.76
2023-04-08T15:10:32.986Z,12.73
2023-04-08T15:18:07.162Z,12.82
2023-04-08T15:25:42.507Z,13.15
2023-04-08T15:33:16.670Z,13.19
2023-04-08T15:40:51.952Z,13.31
2023-04-08T15:48:26.091Z,13.01
2023-04-08T15:56:03.010Z,12.72
2023-04-08T16:03:37.414Z,12.60
2023-04-08T16:11:12.889Z,12.68
2023-04-08T16:18:47.669Z,12.63
2023-04-08T16:26:24.255Z,12.43
2023-04-08T16:33:58.158Z,12.31
2023-04-08T16:41:33.390Z,12.19
2023-04-08T16:49:07.580Z,12.10
2023-04-08T16:56:45.639Z,12.01
2023-04-08T17:12:12.421Z,11.17
2023-04-08T17:19:46.565Z,10.69
2023-04-08T17:35:14.333Z,9.84
2023-04-08T17:42:49.504Z,9.46
2023-04-08T17:50:23.686Z,9.28
2023-04-08T18:05:50.642Z,9.07
2023-04-08T18:13:26.105Z,8.91
2023-04-08T18:21:00.208Z,8.64
2023-04-08T18:36:28.433Z,8.30
2023-04-08T18:44:04.233Z,8.31
2023-04-08T18:51:39.552Z,8.42
2023-04-08T18:59:16.693Z,8.49
2023-04-08T19:06:50.733Z,8.26
2023-04-08T19:14:26.243Z,8.28
2023-04-08T19:22:00.821Z,8.34
2023-04-08T19:29:36.098Z,8.29
2023-04-08T19:37:10.302Z,8.19
2023-04-08T19:44:47.412Z,8.20
2023-04-08T19:52:21.755Z,8.23
2023-04-08T19:59:57.033Z,8.18
2023-04-08T20:07:31.131Z,8.07
2023-04-08T20:15:11.362Z,8.02
2023-04-08T20:30:43.125Z,7.95
2023-04-08T20:38:17.054Z,7.97
2023-04-08T20:45:52.546Z,7.96
2023-04-08T20:53:26.647Z,7.91
2023-04-08T21:01:02.066Z,7.87
2023-04-08T21:16:29.274Z,7.73
2023-04-08T21:24:03.371Z,7.70
2023-04-08T21:31:39.959Z,7.66
2023-04-08T21:39:13.965Z,7.66
2023-04-08T21:46:50.444Z,7.62
2023-04-08T21:54:24.421Z,7.56
2023-04-08T22:01:59.800Z,7.50
2023-04-08T22:09:33.826Z,7.42
2023-04-08T22:17:09.420Z,7.30
2023-04-08T22:24:43.331Z,7.17
2023-04-08T22:32:18.994Z,7.03
2023-04-08T22:39:53.398Z,6.91
2023-04-08T22:47:28.679Z,6.81
2023-04-08T22:55:02.838Z,6.69
2023-04-08T23:02:38.881Z,6.50
2023-04-08T23:10:12.806Z,6.25
2023-04-08T23:17:48.185Z,6.10
2023-04-08T23:25:22.281Z,5.99
2023-04-08T23:40:48.590Z,5.57
2023-04-08T23:48:24.210Z,5.47
2023-04-08T23:56:05.478Z,5.38
